Time;durP1;ratioP1;P1;durP2;ratioP2;P2;SDS_P1;SDS_P2;PMS_P1;PMS_P2;Temp;Humidity;BMP_temperature;BMP_pressure;BME280_temperature;BME280_humidity;BME280_pressure;Samples;Min_cycle;Max_cycle;Signal;HPM_P1;HPM_P2
2022/08/03 00:01:20;;;;;;;7.10;6.40;;;;;;;;;;1662366;84;21049;-68
2022/08/03 00:03:46;;;;;;;6.12;5.22;;;;;;;;;;1662798;84;21049;-66
2022/08/03 00:06:12;;;;;;;7.22;5.92;;;;;;;;;;1659695;86;21110;-66
2022/08/03 00:08:40;;;;;;;8.18;6.05;;;;;;;;;;1683023;83;21567;-66
2022/08/03 00:11:05;;;;;;;6.72;6.03;;;;;;;;;;1662392;86;21065;-66
2022/08/03 00:13:32;;;;;;;8.28;6.22;;;;;;;;;;1663647;86;21029;-66
2022/08/03 00:15:58;;;;;;;6.37;5.62;;;;;;;;;;1665833;86;22202;-67
2022/08/03 00:18:24;;;;;;;6.53;5.62;;;;;;;;;;1665564;84;21192;-66
2022/08/03 00:20:50;;;;;;;8.45;6.12;;;;;;;;;;1663616;86;21068;-67
2022/08/03 00:23:17;;;;;;;9.98;5.90;;;;;;;;;;1697046;83;21608;-67
2022/08/03 00:25:43;;;;;;;8.15;6.53;;;;;;;;;;1694449;83;21073;-67
2022/08/03 00:28:09;;;;;;;8.45;6.40;;;;;;;;;;1699141;83;21575;-67
2022/08/03 00:30:35;;;;;;;7.83;6.08;;;;;;;;;;1692856;82;21540;-66
2022/08/03 00:33:01;;;;;;;7.08;6.15;;;;;;;;;;1679829;85;21097;-66
2022/08/03 00:35:27;;;;;;;7.90;6.55;;;;;;;;;;1679502;83;21104;-67
2022/08/03 00:37:53;;;;;;;7.37;5.90;;;;;;;;;;1680907;85;20997;-66
2022/08/03 00:40:19;;;;;;;7.92;5.62;;;;;;;;;;1687681;85;21016;-66
2022/08/03 00:42:53;;;;;;;8.40;6.70;;;;;;;;;;1685224;85;21076;-66
2022/08/03 00:45:19;;;;;;;7.22;6.28;;;;;;;;;;1677146;85;20993;-67
2022/08/03 00:47:46;;;;;;;7.37;6.60;;;;;;;;;;1677324;85;21072;-67
2022/08/03 00:50:12;;;;;;;7.37;6.37;;;;;;;;;;1652292;85;21537;-67
2022/08/03 00:52:38;;;;;;;7.45;5.62;;;;;;;;;;1699741;83;21120;-67
2022/08/03 00:55:05;;;;;;;8.53;7.00;;;;;;;;;;1675326;85;21144;-67
2022/08/03 00:57:31;;;;;;;7.42;5.60;;;;;;;;;;1679985;83;21068;-66
2022/08/03 01:00:01;;;;;;;7.00;5.47;;;;;;;;;;1659481;86;21561;-66
2022/08/03 01:05:16;;;;;;;7.10;6.10;;;;;;;;;;1752794;78;76749;-60
2022/08/03 01:08:03;;;;;;;8.20;6.60;;;;;;;;;;1758753;81;21058;-60
2022/08/03 01:10:37;;;;;;;7.90;5.65;;;;;;;;;;1757451;81;21561;-60
2022/08/03 01:13:10;;;;;;;8.53;5.85;;;;;;;;;;1758847;81;21106;-60
2022/08/03 01:15:38;;;;;;;6.53;5.87;;;;;;;;;;1758832;81;21487;-60
2022/08/03 01:18:06;;;;;;;7.12;6.35;;;;;;;;;;1760735;81;21008;-60
2022/08/03 01:20:33;;;;;;;8.08;6.58;;;;;;;;;;1757378;81;21067;-60
2022/08/03 01:23:04;;;;;;;7.72;6.47;;;;;;;;;;1760605;81;21023;-61
2022/08/03 01:25:32;;;;;;;7.47;5.78;;;;;;;;;;1760285;80;21058;-60
2022/08/03 01:28:12;;;;;;;9.33;7.17;;;;;;;;;;1758918;80;21102;-60
2022/08/03 01:30:38;;;;;;;9.58;6.65;;;;;;;;;;1717473;80;22431;-61
2022/08/03 01:33:09;;;;;;;7.58;6.78;;;;;;;;;;1760088;80;21570;-61
2022/08/03 01:35:36;;;;;;;8.88;6.83;;;;;;;;;;1732797;81;21007;-61
2022/08/03 01:38:03;;;;;;;7.25;6.42;;;;;;;;;;1747678;80;21039;-61
2022/08/03 01:40:31;;;;;;;10.00;6.58;;;;;;;;;;1744368;80;21086;-61
2022/08/03 01:42:58;;;;;;;7.80;6.40;;;;;;;;;;1728975;80;21027;-61
2022/08/03 01:45:24;;;;;;;9.20;7.20;;;;;;;;;;1699490;84;21583;-61
2022/08/03 01:47:50;;;;;;;8.35;6.42;;;;;;;;;;1742732;80;21041;-61
2022/08/03 01:50:18;;;;;;;11.63;7.33;;;;;;;;;;1764135;80;21057;-60
2022/08/03 01:52:44;;;;;;;8.60;6.47;;;;;;;;;;1764308;81;21488;-61
2022/08/03 01:55:10;;;;;;;10.40;6.78;;;;;;;;;;1761046;81;21092;-61
2022/08/03 01:57:37;;;;;;;9.23;6.33;;;;;;;;;;1752290;81;21510;-61
2022/08/03 02:00:05;;;;;;;7.65;5.85;;;;;;;;;;1752092;81;21065;-61
2022/08/03 02:02:33;;;;;;;8.68;6.40;;;;;;;;;;1754404;80;21073;-61
2022/08/03 02:05:00;;;;;;;8.28;6.75;;;;;;;;;;1740126;80;21589;-61
2022/08/03 02:07:27;;;;;;;7.67;5.80;;;;;;;;;;1714057;82;21011;-61
2022/08/03 02:09:53;;;;;;;9.28;6.33;;;;;;;;;;1734591;82;21146;-61
2022/08/03 02:12:19;;;;;;;10.45;6.33;;;;;;;;;;1735465;82;21072;-61
2022/08/03 02:14:45;;;;;;;7.80;6.33;;;;;;;;;;1731239;82;21109;-61
2022/08/03 02:17:11;;;;;;;6.47;5.70;;;;;;;;;;1737601;80;21945;-61
2022/08/03 02:19:37;;;;;;;6.58;5.58;;;;;;;;;;1708897;82;21642;-61
2022/08/03 02:22:04;;;;;;;8.85;6.92;;;;;;;;;;1733272;81;21061;-61
2022/08/03 02:24:30;;;;;;;9.08;6.28;;;;;;;;;;1735318;82;21538;-61
2022/08/03 02:26:56;;;;;;;6.80;5.70;;;;;;;;;;1737025;82;21031;-62
2022/08/03 02:29:23;;;;;;;8.73;5.90;;;;;;;;;;1746891;82;21068;-61
2022/08/03 02:31:49;;;;;;;8.38;5.45;;;;;;;;;;1753722;81;21080;-61
2022/08/03 02:34:16;;;;;;;9.13;5.78;;;;;;;;;;1750130;82;21596;-61
2022/08/03 02:36:42;;;;;;;7.45;5.60;;;;;;;;;;1754659;82;20996;-61
2022/08/03 02:39:09;;;;;;;7.33;6.15;;;;;;;;;;1731828;82;21065;-61
2022/08/03 02:41:43;;;;;;;8.78;5.75;;;;;;;;;;1754082;82;21595;-61
2022/08/03 02:44:10;;;;;;;6.95;5.50;;;;;;;;;;1753872;81;21543;-61
2022/08/03 02:46:41;;;;;;;8.45;6.28;;;;;;;;;;1752711;82;21086;-61
2022/08/03 02:49:07;;;;;;;8.25;6.53;;;;;;;;;;1742195;80;21094;-61
2022/08/03 02:51:34;;;;;;;9.50;6.20;;;;;;;;;;1743174;80;21033;-61
2022/08/03 02:54:01;;;;;;;7.33;6.28;;;;;;;;;;1713956;82;21140;-61
2022/08/03 02:56:27;;;;;;;7.37;5.40;;;;;;;;;;1748886;80;21029;-61
2022/08/03 02:58:54;;;;;;;8.15;5.62;;;;;;;;;;1754587;82;21568;-61
2022/08/03 03:01:23;;;;;;;7.95;6.40;;;;;;;;;;1752580;81;21047;-63
2022/08/03 03:03:50;;;;;;;8.18;6.62;;;;;;;;;;1749999;81;21130;-62
2022/08/03 03:06:16;;;;;;;7.58;5.83;;;;;;;;;;1744196;81;21064;-61
2022/08/03 03:08:43;;;;;;;10.03;6.10;;;;;;;;;;1766165;81;21108;-61
2022/08/03 03:11:09;;;;;;;6.92;6.22;;;;;;;;;;1782739;80;21091;-61
2022/08/03 03:13:35;;;;;;;7.37;6.30;;;;;;;;;;1797638;80;21048;-61
2022/08/03 03:16:03;;;;;;;8.08;6.20;;;;;;;;;;1795499;79;21030;-61
2022/08/03 03:18:30;;;;;;;9.30;6.87;;;;;;;;;;1797782;80;21052;-61
2022/08/03 03:20:57;;;;;;;8.55;5.80;;;;;;;;;;1797305;80;21028;-61
2022/08/03 03:23:23;;;;;;;9.03;6.08;;;;;;;;;;1785318;80;21018;-61
2022/08/03 03:25:50;;;;;;;9.00;5.90;;;;;;;;;;1785655;80;21050;-61
2022/08/03 03:28:16;;;;;;;7.47;6.42;;;;;;;;;;1785465;79;21032;-62
2022/08/03 03:30:42;;;;;;;9.83;6.03;;;;;;;;;;1791446;80;21491;-61
2022/08/03 03:33:09;;;;;;;7.80;6.08;;;;;;;;;;1797506;80;21532;-61
2022/08/03 03:35:35;;;;;;;7.78;6.97;;;;;;;;;;1793766;80;21058;-61
2022/08/03 03:38:01;;;;;;;8.48;6.95;;;;;;;;;;1785200;80;21071;-61
2022/08/03 03:40:28;;;;;;;9.05;6.35;;;;;;;;;;1785208;80;21046;-61
2022/08/03 03:42:54;;;;;;;8.28;6.60;;;;;;;;;;1790854;80;21547;-61
2022/08/03 03:45:20;;;;;;;10.38;6.42;;;;;;;;;;1797875;80;20985;-62
2022/08/03 03:47:46;;;;;;;9.45;6.30;;;;;;;;;;1797807;80;21115;-61
2022/08/03 03:50:12;;;;;;;7.37;6.33;;;;;;;;;;1796024;80;21046;-62
2022/08/03 03:52:38;;;;;;;9.53;6.50;;;;;;;;;;1784987;80;21044;-61
2022/08/03 03:55:05;;;;;;;8.40;6.62;;;;;;;;;;1786107;80;21578;-61
2022/08/03 03:57:31;;;;;;;9.13;6.83;;;;;;;;;;1796924;80;21502;-62
2022/08/03 03:59:57;;;;;;;9.40;7.40;;;;;;;;;;1766512;80;21014;-62
2022/08/03 04:02:23;;;;;;;10.18;6.53;;;;;;;;;;1797590;80;21022;-62
2022/08/03 04:13:15;;;;;;;10.65;6.55;;;;;;;;;;1785650;79;21084;-62
2022/08/03 04:15:42;;;;;;;10.03;6.50;;;;;;;;;;1797552;80;21523;-61
2022/08/03 04:18:09;;;;;;;9.90;7.35;;;;;;;;;;1797748;80;21100;-61
2022/08/03 04:20:35;;;;;;;8.75;7.20;;;;;;;;;;1795581;80;21032;-61
2022/08/03 04:23:02;;;;;;;11.83;7.60;;;;;;;;;;1786805;80;21535;-62
2022/08/03 04:25:29;;;;;;;9.88;6.67;;;;;;;;;;1797741;80;21571;-63
2022/08/03 04:27:58;;;;;;;9.65;5.92;;;;;;;;;;1785135;80;21500;-63
2022/08/03 04:30:25;;;;;;;9.08;6.72;;;;;;;;;;1787529;80;20984;-63
2022/08/03 04:32:51;;;;;;;8.75;6.70;;;;;;;;;;1784778;80;21056;-62
2022/08/03 04:35:17;;;;;;;8.65;7.30;;;;;;;;;;1786968;80;21375;-62
2022/08/03 04:37:47;;;;;;;7.55;6.62;;;;;;;;;;1797467;80;21016;-62
2022/08/03 04:40:15;;;;;;;6.97;5.58;;;;;;;;;;1797494;80;21048;-61
2022/08/03 04:42:41;;;;;;;10.50;6.33;;;;;;;;;;1786905;79;21499;-61
2022/08/03 04:45:09;;;;;;;8.05;6.40;;;;;;;;;;1787031;80;21539;-61
2022/08/03 04:47:37;;;;;;;9.15;7.30;;;;;;;;;;1784829;80;21072;-62
2022/08/03 04:50:04;;;;;;;7.08;5.70;;;;;;;;;;1784990;80;21302;-62
2022/08/03 04:52:30;;;;;;;7.15;6.08;;;;;;;;;;1785048;79;21619;-62
2022/08/03 04:54:56;;;;;;;6.97;5.70;;;;;;;;;;1782936;80;21036;-62
2022/08/03 04:57:22;;;;;;;6.92;6.22;;;;;;;;;;1784226;79;21028;-62
2022/08/03 04:59:52;;;;;;;7.87;6.42;;;;;;;;;;1783773;80;21384;-62
2022/08/03 05:02:17;;;;;;;8.33;5.95;;;;;;;;;;1787612;80;21056;-63
2022/08/03 05:04:45;;;;;;;6.60;5.80;;;;;;;;;;1783622;80;21602;-64
2022/08/03 05:07:12;;;;;;;7.78;6.00;;;;;;;;;;1738042;80;21027;-63
2022/08/03 05:09:38;;;;;;;9.95;6.50;;;;;;;;;;1728385;83;21529;-62
2022/08/03 05:12:05;;;;;;;8.08;7.17;;;;;;;;;;1723515;82;21073;-63
2022/08/03 05:14:31;;;;;;;8.10;6.37;;;;;;;;;;1742991;80;21027;-63
2022/08/03 05:16:58;;;;;;;7.53;6.08;;;;;;;;;;1750833;81;21512;-63
2022/08/03 05:19:24;;;;;;;9.63;6.15;;;;;;;;;;1753992;82;21065;-62
2022/08/03 05:21:50;;;;;;;8.53;6.78;;;;;;;;;;1754090;82;21069;-62
2022/08/03 05:24:16;;;;;;;8.98;6.80;;;;;;;;;;1746904;80;21031;-62
2022/08/03 05:26:43;;;;;;;7.20;6.47;;;;;;;;;;1723584;82;21023;-62
2022/08/03 05:29:09;;;;;;;8.13;7.20;;;;;;;;;;1751640;80;21026;-63
2022/08/03 05:31:35;;;;;;;8.38;6.97;;;;;;;;;;1748577;81;21071;-62
2022/08/03 05:34:01;;;;;;;11.90;6.70;;;;;;;;;;1751273;80;20994;-63
2022/08/03 05:36:28;;;;;;;8.63;6.53;;;;;;;;;;1753802;80;21032;-63
2022/08/03 05:38:54;;;;;;;10.23;7.30;;;;;;;;;;1751485;80;21080;-74
2022/08/03 05:41:20;;;;;;;8.70;7.08;;;;;;;;;;1749738;80;21064;-69
2022/08/03 05:46:17;;;;;;;7.97;7.05;;;;;;;;;;1795258;78;23555;-69
2022/08/03 05:48:50;;;;;;;8.55;7.60;;;;;;;;;;1759620;81;21068;-68
2022/08/03 05:51:16;;;;;;;11.95;7.53;;;;;;;;;;1755504;82;21048;-69
2022/08/03 05:53:42;;;;;;;10.08;7.60;;;;;;;;;;1766469;80;20997;-68
2022/08/03 05:56:08;;;;;;;9.65;7.20;;;;;;;;;;1782220;80;20992;-67
2022/08/03 05:58:34;;;;;;;10.18;7.65;;;;;;;;;;1775030;80;21614;-68
2022/08/03 06:01:00;;;;;;;10.93;7.85;;;;;;;;;;1757480;81;20977;-69
2022/08/03 06:03:27;;;;;;;8.90;8.00;;;;;;;;;;1730170;81;21666;-68
2022/08/03 06:05:54;;;;;;;10.50;8.08;;;;;;;;;;1726320;82;21064;-69
2022/08/03 06:08:21;;;;;;;9.45;7.87;;;;;;;;;;1748575;82;21060;-69
2022/08/03 06:10:48;;;;;;;10.85;7.78;;;;;;;;;;1729277;82;21598;-69
2022/08/03 06:13:14;;;;;;;9.48;7.72;;;;;;;;;;1729061;82;21564;-69
2022/08/03 06:15:40;;;;;;;10.23;7.50;;;;;;;;;;1737330;82;21075;-69
2022/08/03 06:18:07;;;;;;;14.43;8.43;;;;;;;;;;1719860;82;21114;-69
2022/08/03 06:20:34;;;;;;;12.95;8.43;;;;;;;;;;1681706;83;21079;-69
2022/08/03 06:22:59;;;;;;;8.15;7.15;;;;;;;;;;1673049;85;21128;-69
2022/08/03 06:25:25;;;;;;;8.38;7.10;;;;;;;;;;1673826;86;21013;-69
2022/08/03 06:27:51;;;;;;;8.78;6.92;;;;;;;;;;1673866;86;21041;-69
2022/08/03 06:30:17;;;;;;;8.48;7.67;;;;;;;;;;1679693;84;21627;-69
2022/08/03 06:32:44;;;;;;;10.65;7.12;;;;;;;;;;1684142;84;21571;-69
2022/08/03 06:35:10;;;;;;;8.48;7.60;;;;;;;;;;1696826;84;21559;-69
2022/08/03 06:37:44;;;;;;;12.73;8.83;;;;;;;;;;1698395;84;21040;-69
2022/08/03 06:40:13;;;;;;;10.40;7.20;;;;;;;;;;1699954;84;21072;-68
2022/08/03 06:42:40;;;;;;;9.35;7.40;;;;;;;;;;1683093;84;21056;-68
2022/08/03 06:45:07;;;;;;;10.88;8.08;;;;;;;;;;1669857;85;21113;-68
2022/08/03 06:47:35;;;;;;;11.75;8.45;;;;;;;;;;1670503;85;21121;-69
2022/08/03 06:50:02;;;;;;;9.38;7.40;;;;;;;;;;1663078;85;20994;-69
2022/08/03 06:52:28;;;;;;;10.00;7.33;;;;;;;;;;1666311;85;21101;-68
2022/08/03 06:54:54;;;;;;;9.70;7.05;;;;;;;;;;1664212;85;21095;-68
2022/08/03 06:57:20;;;;;;;12.88;7.95;;;;;;;;;;1669325;85;21073;-69
2022/08/03 06:59:46;;;;;;;11.57;8.40;;;;;;;;;;1682311;85;21584;-69
2022/08/03 07:02:12;;;;;;;8.63;6.40;;;;;;;;;;1679607;85;21120;-68
2022/08/03 07:04:40;;;;;;;10.63;7.87;;;;;;;;;;1668577;85;21061;-69
2022/08/03 07:07:07;;;;;;;9.60;7.03;;;;;;;;;;1668890;85;21077;-68
2022/08/03 07:09:34;;;;;;;8.15;6.80;;;;;;;;;;1671572;85;21077;-69
2022/08/03 07:12:01;;;;;;;10.23;6.65;;;;;;;;;;1672019;85;21088;-69
2022/08/03 07:14:27;;;;;;;8.05;6.42;;;;;;;;;;1678081;85;21501;-69
2022/08/03 07:16:53;;;;;;;9.43;7.85;;;;;;;;;;1670615;85;21038;-70
2022/08/03 07:19:19;;;;;;;11.63;7.50;;;;;;;;;;1670753;85;21119;-69
2022/08/03 07:21:46;;;;;;;9.65;6.78;;;;;;;;;;1665807;85;21000;-69
2022/08/03 07:24:12;;;;;;;8.68;6.72;;;;;;;;;;1666022;85;21006;-69
2022/08/03 07:26:38;;;;;;;8.98;7.30;;;;;;;;;;1668025;85;21066;-66
2022/08/03 07:29:04;;;;;;;8.58;6.92;;;;;;;;;;1674033;85;21037;-66
2022/08/03 07:31:30;;;;;;;7.97;7.17;;;;;;;;;;1695823;84;21058;-66
2022/08/03 07:33:56;;;;;;;9.08;7.28;;;;;;;;;;1721830;82;21049;-66
2022/08/03 07:36:23;;;;;;;10.30;7.75;;;;;;;;;;1739317;82;21006;-67
2022/08/03 07:38:50;;;;;;;10.55;6.50;;;;;;;;;;1717460;82;21056;-68
2022/08/03 07:41:16;;;;;;;8.45;7.65;;;;;;;;;;1717934;82;21054;-71
2022/08/03 07:43:42;;;;;;;8.28;6.30;;;;;;;;;;1731532;82;21047;-70
2022/08/03 07:46:08;;;;;;;8.73;6.92;;;;;;;;;;1728366;81;21052;-70
2022/08/03 07:48:34;;;;;;;9.53;7.47;;;;;;;;;;1726809;82;21044;-70
2022/08/03 07:51:02;;;;;;;7.62;6.20;;;;;;;;;;1739768;82;21193;-68
2022/08/03 07:53:28;;;;;;;7.92;6.90;;;;;;;;;;1739726;82;21040;-69
2022/08/03 07:55:55;;;;;;;8.90;7.22;;;;;;;;;;1725908;82;21040;-69
2022/08/03 07:58:22;;;;;;;10.18;6.70;;;;;;;;;;1734684;82;22100;-69
2022/08/03 08:00:49;;;;;;;9.93;6.97;;;;;;;;;;1724994;82;21012;-69
2022/08/03 08:03:15;;;;;;;7.90;7.10;;;;;;;;;;1725350;82;21465;-69
2022/08/03 08:05:41;;;;;;;7.28;6.50;;;;;;;;;;1745797;82;21063;-69
2022/08/03 08:08:07;;;;;;;7.20;6.50;;;;;;;;;;1737168;82;22042;-71
2022/08/03 08:10:34;;;;;;;9.90;7.85;;;;;;;;;;1744759;82;21075;-68
2022/08/03 08:13:00;;;;;;;8.70;7.22;;;;;;;;;;1750373;82;21076;-68
2022/08/03 08:15:26;;;;;;;8.50;6.90;;;;;;;;;;1749936;82;21084;-68
2022/08/03 08:17:53;;;;;;;9.43;7.40;;;;;;;;;;1751150;82;20977;-68
2022/08/03 08:20:21;;;;;;;8.10;7.30;;;;;;;;;;1749847;80;21586;-68
2022/08/03 08:22:48;;;;;;;7.78;6.85;;;;;;;;;;1723676;83;21040;-68
2022/08/03 08:25:14;;;;;;;8.53;6.60;;;;;;;;;;1730137;82;21048;-68
2022/08/03 08:27:44;;;;;;;10.95;7.00;;;;;;;;;;1753410;82;20977;-67
2022/08/03 08:30:11;;;;;;;9.30;7.20;;;;;;;;;;1747728;81;20988;-67
2022/08/03 08:32:37;;;;;;;7.50;6.80;;;;;;;;;;1751271;81;21000;-65
2022/08/03 08:35:04;;;;;;;7.83;7.00;;;;;;;;;;1734204;81;21060;-67
2022/08/03 08:37:30;;;;;;;10.15;7.20;;;;;;;;;;1724458;82;20981;-67
2022/08/03 08:39:56;;;;;;;9.13;7.53;;;;;;;;;;1749218;82;21548;-67
2022/08/03 08:42:22;;;;;;;8.43;7.08;;;;;;;;;;1744232;82;21069;-67
2022/08/03 08:44:48;;;;;;;7.78;6.97;;;;;;;;;;1743056;81;21024;-68
2022/08/03 08:47:14;;;;;;;10.53;7.22;;;;;;;;;;1739559;81;21092;-67
2022/08/03 08:49:41;;;;;;;9.28;6.53;;;;;;;;;;1731852;82;21068;-67
2022/08/03 08:52:07;;;;;;;7.92;6.90;;;;;;;;;;1723911;82;21036;-67
2022/08/03 08:54:33;;;;;;;8.63;6.40;;;;;;;;;;1742927;82;21523;-66
2022/08/03 08:57:03;;;;;;;11.08;7.15;;;;;;;;;;1740866;82;21097;-67
2022/08/03 08:59:33;;;;;;;9.10;7.10;;;;;;;;;;1752586;81;21052;-66
2022/08/03 09:02:00;;;;;;;10.05;7.03;;;;;;;;;;1752852;81;21127;-66
2022/08/03 09:04:29;;;;;;;8.93;7.37;;;;;;;;;;1743757;82;21075;-68
2022/08/03 09:06:55;;;;;;;9.05;7.10;;;;;;;;;;1724068;82;21056;-68
2022/08/03 09:09:23;;;;;;;8.48;7.55;;;;;;;;;;1748463;82;21041;-68
2022/08/03 09:11:49;;;;;;;8.90;7.20;;;;;;;;;;1753403;82;21336;-68
2022/08/03 09:14:15;;;;;;;10.32;7.78;;;;;;;;;;1753122;82;20997;-67
2022/08/03 09:16:54;;;;;;;8.90;7.67;;;;;;;;;;1744605;82;21084;-67
2022/08/03 09:19:21;;;;;;;8.73;6.30;;;;;;;;;;1732965;81;21532;-67
2022/08/03 09:21:48;;;;;;;9.30;7.22;;;;;;;;;;1752919;82;21048;-67
2022/08/03 09:24:16;;;;;;;8.30;7.33;;;;;;;;;;1750072;81;21024;-67
2022/08/03 09:26:52;;;;;;;9.38;7.45;;;;;;;;;;1703051;83;21092;-68
2022/08/03 09:29:13;;;;;;;9.55;7.90;;;;;;;;;;1726286;82;21560;-67
2022/08/03 09:31:42;;;;;;;8.98;7.90;;;;;;;;;;1698971;83;21051;-66
2022/08/03 09:34:09;;;;;;;7.28;6.28;;;;;;;;;;1723869;82;21045;-66
2022/08/03 09:36:42;;;;;;;9.90;7.20;;;;;;;;;;1725691;82;21044;-65
2022/08/03 09:39:12;;;;;;;8.75;7.85;;;;;;;;;;1727390;82;21067;-66
2022/08/03 09:41:39;;;;;;;8.00;6.85;;;;;;;;;;1723751;82;21075;-66
2022/08/03 09:44:05;;;;;;;7.75;6.95;;;;;;;;;;1728491;82;21083;-67
2022/08/03 09:46:33;;;;;;;8.35;7.20;;;;;;;;;;1726836;81;21061;-67
2022/08/03 09:49:10;;;;;;;8.50;7.50;;;;;;;;;;1722183;82;21101;-67
2022/08/03 09:51:36;;;;;;;9.65;7.10;;;;;;;;;;1728835;82;21548;-67
2022/08/03 09:54:03;;;;;;;10.23;8.10;;;;;;;;;;1724638;82;21012;-67
2022/08/03 09:56:39;;;;;;;11.00;7.67;;;;;;;;;;1727000;82;21585;-67
2022/08/03 09:59:06;;;;;;;9.08;7.15;;;;;;;;;;1726650;82;21092;-67
2022/08/03 10:01:34;;;;;;;7.92;7.03;;;;;;;;;;1739359;82;21163;-66
2022/08/03 10:04:00;;;;;;;8.53;7.15;;;;;;;;;;1721478;81;21544;-67
2022/08/03 10:06:26;;;;;;;9.53;7.65;;;;;;;;;;1729996;82;22226;-67
2022/08/03 10:09:06;;;;;;;9.23;7.15;;;;;;;;;;1720565;82;21100;-68
2022/08/03 10:11:37;;;;;;;17.15;15.30;;;;;;;;;;1712027;82;21116;-65
2022/08/03 10:14:03;;;;;;;9.48;8.48;;;;;;;;;;1721958;82;21096;-65
2022/08/03 10:16:34;;;;;;;8.45;7.20;;;;;;;;;;1737465;82;20998;-65
2022/08/03 10:19:00;;;;;;;7.08;6.20;;;;;;;;;;1730499;82;21053;-67
2022/08/03 10:21:27;;;;;;;8.70;6.55;;;;;;;;;;1734097;82;21096;-68
2022/08/03 10:23:54;;;;;;;10.82;8.25;;;;;;;;;;1738220;82;21057;-67
2022/08/03 10:26:21;;;;;;;8.38;7.58;;;;;;;;;;1738623;82;21045;-67
2022/08/03 10:28:48;;;;;;;9.88;7.20;;;;;;;;;;1739113;82;21025;-67
2022/08/03 10:31:14;;;;;;;9.10;6.33;;;;;;;;;;1713954;82;21047;-68
2022/08/03 10:33:42;;;;;;;8.50;7.58;;;;;;;;;;1713219;82;21084;-68
2022/08/03 10:36:09;;;;;;;8.98;6.80;;;;;;;;;;1737154;82;21037;-68
2022/08/03 10:38:37;;;;;;;8.23;6.80;;;;;;;;;;1731880;82;21046;-68
2022/08/03 10:41:03;;;;;;;8.80;7.30;;;;;;;;;;1731585;82;21065;-68
2022/08/03 10:43:31;;;;;;;8.93;7.67;;;;;;;;;;1739253;82;21029;-68
2022/08/03 10:45:57;;;;;;;8.60;7.15;;;;;;;;;;1742655;82;21021;-69
2022/08/03 10:48:23;;;;;;;7.37;6.40;;;;;;;;;;1735886;82;21067;-69
2022/08/03 10:50:49;;;;;;;8.70;7.17;;;;;;;;;;1752472;82;20997;-68
2022/08/03 10:53:15;;;;;;;7.25;6.35;;;;;;;;;;1738808;82;21587;-68
2022/08/03 10:58:43;;;;;;;7.80;7.03;;;;;;;;;;1753060;82;21077;-68
2022/08/03 11:01:10;;;;;;;8.13;7.33;;;;;;;;;;1724311;82;21099;-69
2022/08/03 11:03:53;;;;;;;9.13;7.33;;;;;;;;;;1723608;83;21571;-69
2022/08/03 11:06:21;;;;;;;8.28;7.03;;;;;;;;;;1734156;82;21009;-69
2022/08/03 11:08:48;;;;;;;10.28;7.15;;;;;;;;;;1752721;82;21033;-69
2022/08/03 11:11:18;;;;;;;8.63;7.25;;;;;;;;;;1753666;82;21021;-69
2022/08/03 11:14:03;;;;;;;7.35;6.53;;;;;;;;;;1753641;82;21064;-68
2022/08/03 11:16:31;;;;;;;8.05;7.25;;;;;;;;;;1752511;82;21547;-67
2022/08/03 11:18:59;;;;;;;8.00;7.20;;;;;;;;;;1746120;82;21087;-68
2022/08/03 11:21:44;;;;;;;9.00;7.40;;;;;;;;;;1753017;82;21032;-68
2022/08/03 11:24:10;;;;;;;7.70;6.90;;;;;;;;;;1723829;82;21128;-68
2022/08/03 11:26:36;;;;;;;7.80;6.75;;;;;;;;;;1734034;82;21079;-68
2022/08/03 11:29:21;;;;;;;9.68;6.90;;;;;;;;;;1748985;82;21528;-68
2022/08/03 11:31:47;;;;;;;8.78;7.30;;;;;;;;;;1730441;82;21068;-66
2022/08/03 11:34:14;;;;;;;7.50;6.65;;;;;;;;;;1753525;81;21080;-68
2022/08/03 11:36:59;;;;;;;8.08;7.28;;;;;;;;;;1742119;81;21020;-68
2022/08/03 11:39:42;;;;;;;7.90;7.05;;;;;;;;;;1727871;82;21008;-67
2022/08/03 11:42:08;;;;;;;;;;;;;;;;;;1754323;82;21060;-68
2022/08/03 11:44:39;;;;;;;7.00;6.30;;;;;;;;;;1746997;82;20169;-68
2022/08/03 11:47:06;;;;;;;7.65;6.15;;;;;;;;;;1732420;81;21600;-68
2022/08/03 11:49:32;;;;;;;7.12;6.42;;;;;;;;;;1717535;82;21552;-68
2022/08/03 11:51:58;;;;;;;6.87;6.20;;;;;;;;;;1713113;82;21061;-68
2022/08/03 11:54:25;;;;;;;8.03;6.65;;;;;;;;;;1723897;82;21536;-68
2022/08/03 11:56:51;;;;;;;8.55;6.53;;;;;;;;;;1734810;82;21042;-68
2022/08/03 11:59:17;;;;;;;6.92;6.20;;;;;;;;;;1732741;82;21026;-68
2022/08/03 12:01:44;;;;;;;7.33;6.40;;;;;;;;;;1732851;82;21065;-68
2022/08/03 12:04:10;;;;;;;8.35;7.50;;;;;;;;;;1732052;82;21021;-66
2022/08/03 12:06:55;;;;;;;7.53;6.83;;;;;;;;;;1737873;82;21541;-65
2022/08/03 12:09:21;;;;;;;7.50;5.90;;;;;;;;;;1709664;84;21777;-66
2022/08/03 12:11:48;;;;;;;8.98;5.83;;;;;;;;;;1723949;82;21001;-66
2022/08/03 12:14:16;;;;;;;7.67;6.10;;;;;;;;;;1739111;82;21048;-65
2022/08/03 12:16:43;;;;;;;6.55;5.80;;;;;;;;;;1732774;82;21017;-68
2022/08/03 12:19:10;;;;;;;7.17;6.50;;;;;;;;;;1714409;82;20971;-67
2022/08/03 12:21:38;;;;;;;9.03;5.83;;;;;;;;;;1733179;82;21053;-67
2022/08/03 12:24:05;;;;;;;9.78;5.70;;;;;;;;;;1723719;82;21056;-67
2022/08/03 12:26:33;;;;;;;6.80;6.17;;;;;;;;;;1712234;82;21544;-66
2022/08/03 12:28:59;;;;;;;6.30;5.47;;;;;;;;;;1708216;84;21045;-65
2022/08/03 12:31:25;;;;;;;10.10;6.53;;;;;;;;;;1710113;82;21553;-66
2022/08/03 12:33:55;;;;;;;6.75;6.03;;;;;;;;;;1710760;82;21053;-68
2022/08/03 12:36:21;;;;;;;5.78;5.10;;;;;;;;;;1721015;82;21088;-67
2022/08/03 12:38:49;;;;;;;6.95;5.08;;;;;;;;;;1711074;82;21045;-68
2022/08/03 12:41:15;;;;;;;5.78;5.10;;;;;;;;;;1732250;82;21021;-69
2022/08/03 12:43:48;;;;;;;7.65;5.30;;;;;;;;;;1739195;82;21504;-68
2022/08/03 12:46:15;;;;;;;7.78;5.25;;;;;;;;;;1713288;82;21060;-69
2022/08/03 12:48:59;;;;;;;10.35;6.62;;;;;;;;;;1734255;82;21043;-68
2022/08/03 12:51:26;;;;;;;12.25;7.25;;;;;;;;;;1739030;82;21010;-68
2022/08/03 12:53:53;;;;;;;7.25;6.20;;;;;;;;;;1753473;82;20973;-68
2022/08/03 12:56:19;;;;;;;7.55;6.00;;;;;;;;;;1753454;82;21041;-69
2022/08/03 12:58:46;;;;;;;7.53;6.80;;;;;;;;;;1734195;82;21013;-69
2022/08/03 13:01:12;;;;;;;8.70;6.42;;;;;;;;;;1726006;82;21563;-68
2022/08/03 13:03:40;;;;;;;9.20;6.45;;;;;;;;;;1752798;82;21107;-68
2022/08/03 13:06:10;;;;;;;10.98;7.33;;;;;;;;;;1724063;82;21061;-68
2022/08/03 13:08:37;;;;;;;10.53;6.65;;;;;;;;;;1730833;82;21068;-69
2022/08/03 13:23:24;;;;;;;9.90;6.78;;;;;;;;;;1810392;79;24162;-68
2022/08/03 13:25:51;;;;;;;8.03;7.22;;;;;;;;;;1733106;81;21112;-69
2022/08/03 13:28:17;;;;;;;9.80;6.17;;;;;;;;;;1727174;83;21687;-68
2022/08/03 13:30:43;;;;;;;7.72;6.25;;;;;;;;;;1751457;81;21529;-68
2022/08/03 13:33:11;;;;;;;7.40;6.60;;;;;;;;;;1753223;82;21101;-68
2022/08/03 13:35:37;;;;;;;6.35;5.70;;;;;;;;;;1754736;81;21233;-67
2022/08/03 13:38:03;;;;;;;18.00;7.33;;;;;;;;;;1749750;81;22110;-70
2022/08/03 13:40:30;;;;;;;13.83;6.28;;;;;;;;;;1743809;82;21570;-70
2022/08/03 13:42:57;;;;;;;7.92;5.60;;;;;;;;;;1749747;82;21019;-69
2022/08/03 13:45:23;;;;;;;7.53;5.87;;;;;;;;;;1746508;81;21003;-70
2022/08/03 13:47:49;;;;;;;6.45;5.10;;;;;;;;;;1758223;80;20979;-70
2022/08/03 13:50:15;;;;;;;7.42;4.75;;;;;;;;;;1762356;81;21010;-70
2022/08/03 14:04:13;;;;;;;6.00;3.77;;;;;;;;;;1818715;79;23070;-63
2022/08/03 14:06:39;;;;;;;4.28;3.50;;;;;;;;;;1792419;80;20973;-64
2022/08/03 14:09:05;;;;;;;5.53;3.42;;;;;;;;;;1793333;80;20992;-64
2022/08/03 14:11:32;;;;;;;5.83;3.95;;;;;;;;;;1784937;80;21048;-64
2022/08/03 14:13:59;;;;;;;4.60;4.05;;;;;;;;;;1756114;80;21036;-64
2022/08/03 14:16:25;;;;;;;7.60;4.67;;;;;;;;;;1783380;80;20973;-63
2022/08/03 14:18:51;;;;;;;6.67;5.05;;;;;;;;;;1789008;80;21048;-63
2022/08/03 14:21:18;;;;;;;7.65;5.15;;;;;;;;;;1789147;80;21485;-63
2022/08/03 14:23:44;;;;;;;5.45;4.72;;;;;;;;;;1777424;80;21016;-63
2022/08/03 14:26:10;;;;;;;5.80;5.20;;;;;;;;;;1767792;80;20996;-63
2022/08/03 14:28:37;;;;;;;8.35;6.03;;;;;;;;;;1785386;79;21496;-65
2022/08/03 14:31:03;;;;;;;8.05;5.42;;;;;;;;;;1794289;80;21075;-71
2022/08/03 14:33:30;;;;;;;8.00;5.92;;;;;;;;;;1792720;80;21095;-71
2022/08/03 14:35:56;;;;;;;6.67;5.67;;;;;;;;;;1792376;80;21135;-71
2022/08/03 14:38:22;;;;;;;8.50;5.80;;;;;;;;;;1776193;80;21028;-71
2022/08/03 14:54:16;;;;;;;5.80;5.17;;;;;;;;;;1789400;79;22932;-70
2022/08/03 14:56:42;;;;;;;8.30;5.58;;;;;;;;;;1761526;78;20992;-69
2022/08/03 14:59:08;;;;;;;7.20;5.17;;;;;;;;;;1760628;80;21007;-69
2022/08/03 15:01:34;;;;;;;6.00;4.92;;;;;;;;;;1769616;80;20991;-69
2022/08/03 15:04:00;;;;;;;6.40;4.67;;;;;;;;;;1768557;80;21519;-69
2022/08/03 15:06:26;;;;;;;6.83;5.20;;;;;;;;;;1761565;81;21011;-69
2022/08/03 15:08:53;;;;;;;7.10;5.28;;;;;;;;;;1763024;80;21000;-69
2022/08/03 15:11:19;;;;;;;8.55;5.37;;;;;;;;;;1779054;80;21002;-69
2022/08/03 15:13:45;;;;;;;6.90;5.40;;;;;;;;;;1761579;80;21071;-70
2022/08/03 15:16:11;;;;;;;7.08;5.20;;;;;;;;;;1730311;83;21032;-69
2022/08/03 15:18:37;;;;;;;7.90;5.40;;;;;;;;;;1731628;81;21083;-69
2022/08/03 15:21:03;;;;;;;8.73;5.75;;;;;;;;;;1720733;82;21559;-69
2022/08/03 15:23:29;;;;;;;5.28;4.75;;;;;;;;;;1730578;82;21119;-69
2022/08/03 15:25:55;;;;;;;5.70;5.10;;;;;;;;;;1727029;82;21044;-69
2022/08/03 15:28:21;;;;;;;6.62;4.87;;;;;;;;;;1721654;82;21080;-69
2022/08/03 15:30:47;;;;;;;8.78;5.28;;;;;;;;;;1725175;82;21004;-68
2022/08/03 15:33:13;;;;;;;7.65;5.15;;;;;;;;;;1728824;82;21025;-69
2022/08/03 15:35:39;;;;;;;8.65;5.80;;;;;;;;;;1731261;82;21554;-67